sensor_id;sensor_type;location;lat;lon;timestamp;P1;durP1;ratioP1;P2;durP2;ratioP2
11135;SDS011;5622;50.840;4.948;2022-08-21T00:01:40;6.53;;;2.70;;
11135;SDS011;5622;50.840;4.948;2022-08-21T00:04:08;6.47;;;3.40;;
11135;SDS011;5622;50.840;4.948;2022-08-21T00:06:37;3.20;;;2.53;;
11135;SDS011;5622;50.840;4.948;2022-08-21T00:09:06;3.37;;;2.73;;
11135;SDS011;5622;50.840;4.948;2022-08-21T00:11:34;5.20;;;2.90;;
11135;SDS011;5622;50.840;4.948;2022-08-21T00:14:03;6.10;;;3.23;;
11135;SDS011;5622;50.840;4.948;2022-08-21T00:16:31;6.80;;;2.93;;
11135;SDS011;5622;50.840;4.948;2022-08-21T00:18:58;6.53;;;3.10;;
11135;SDS011;5622;50.840;4.948;2022-08-21T00:21:25;8.03;;;3.47;;
11135;SDS011;5622;50.840;4.948;2022-08-21T00:23:52;4.97;;;3.13;;
11135;SDS011;5622;50.840;4.948;2022-08-21T00:26:21;6.23;;;2.80;;
11135;SDS011;5622;50.840;4.948;2022-08-21T00:28:48;6.43;;;2.97;;
11135;SDS011;5622;50.840;4.948;2022-08-21T00:31:15;4.70;;;2.80;;
11135;SDS011;5622;50.840;4.948;2022-08-21T00:33:43;4.93;;;2.90;;
11135;SDS011;5622;50.840;4.948;2022-08-21T00:36:11;4.73;;;2.90;;
11135;SDS011;5622;50.840;4.948;2022-08-21T00:38:38;7.83;;;3.53;;
11135;SDS011;5622;50.840;4.948;2022-08-21T00:41:06;4.23;;;3.23;;
11135;SDS011;5622;50.840;4.948;2022-08-21T00:43:37;5.10;;;2.97;;
11135;SDS011;5622;50.840;4.948;2022-08-21T00:46:05;5.33;;;2.90;;
11135;SDS011;5622;50.840;4.948;2022-08-21T00:48:33;5.90;;;3.30;;
11135;SDS011;5622;50.840;4.948;2022-08-21T00:51:02;7.20;;;2.70;;
11135;SDS011;5622;50.840;4.948;2022-08-21T00:53:34;5.37;;;2.70;;
11135;SDS011;5622;50.840;4.948;2022-08-21T00:56:04;3.93;;;2.90;;
11135;SDS011;5622;50.840;4.948;2022-08-21T00:58:33;3.67;;;3.00;;
11135;SDS011;5622;50.840;4.948;2022-08-21T01:01:04;5.00;;;2.67;;
11135;SDS011;5622;50.840;4.948;2022-08-21T01:03:32;4.53;;;2.97;;
11135;SDS011;5622;50.840;4.948;2022-08-21T01:05:59;5.20;;;2.60;;
11135;SDS011;5622;50.840;4.948;2022-08-21T01:08:27;7.13;;;3.00;;
11135;SDS011;5622;50.840;4.948;2022-08-21T01:10:55;4.40;;;3.00;;
11135;SDS011;5622;50.840;4.948;2022-08-21T01:13:22;5.50;;;2.53;;
11135;SDS011;5622;50.840;4.948;2022-08-21T01:15:51;9.17;;;3.23;;
11135;SDS011;5622;50.840;4.948;2022-08-21T01:18:21;5.40;;;2.70;;
11135;SDS011;5622;50.840;4.948;2022-08-21T01:21:01;5.93;;;3.10;;
11135;SDS011;5622;50.840;4.948;2022-08-21T01:23:30;5.87;;;3.20;;
11135;SDS011;5622;50.840;4.948;2022-08-21T01:25:57;6.03;;;2.90;;
11135;SDS011;5622;50.840;4.948;2022-08-21T01:28:24;6.67;;;3.10;;
11135;SDS011;5622;50.840;4.948;2022-08-21T01:30:52;5.80;;;3.07;;
11135;SDS011;5622;50.840;4.948;2022-08-21T01:33:21;4.60;;;2.67;;
11135;SDS011;5622;50.840;4.948;2022-08-21T01:35:50;6.00;;;3.33;;
11135;SDS011;5622;50.840;4.948;2022-08-21T01:38:19;3.83;;;2.87;;
11135;SDS011;5622;50.840;4.948;2022-08-21T01:40:46;6.47;;;2.93;;
11135;SDS011;5622;50.840;4.948;2022-08-21T01:43:13;4.27;;;2.73;;
11135;SDS011;5622;50.840;4.948;2022-08-21T01:45:40;9.20;;;3.20;;
11135;SDS011;5622;50.840;4.948;2022-08-21T01:48:07;8.70;;;3.23;;
11135;SDS011;5622;50.840;4.948;2022-08-21T01:50:35;4.57;;;2.87;;
11135;SDS011;5622;50.840;4.948;2022-08-21T01:53:02;4.27;;;2.97;;
11135;SDS011;5622;50.840;4.948;2022-08-21T01:55:31;4.97;;;3.03;;
11135;SDS011;5622;50.840;4.948;2022-08-21T01:57:58;6.60;;;2.80;;
11135;SDS011;5622;50.840;4.948;2022-08-21T02:00:26;5.90;;;2.80;;
11135;SDS011;5622;50.840;4.948;2022-08-21T02:02:53;6.30;;;2.80;;
11135;SDS011;5622;50.840;4.948;2022-08-21T02:05:21;5.47;;;3.10;;
11135;SDS011;5622;50.840;4.948;2022-08-21T02:07:49;6.10;;;3.03;;
11135;SDS011;5622;50.840;4.948;2022-08-21T02:10:21;6.07;;;2.70;;
11135;SDS011;5622;50.840;4.948;2022-08-21T02:12:52;6.73;;;2.83;;
11135;SDS011;5622;50.840;4.948;2022-08-21T02:15:20;6.90;;;3.03;;
11135;SDS011;5622;50.840;4.948;2022-08-21T02:17:48;6.00;;;2.60;;
11135;SDS011;5622;50.840;4.948;2022-08-21T02:20:18;6.17;;;2.67;;
11135;SDS011;5622;50.840;4.948;2022-08-21T02:22:47;5.70;;;2.93;;
11135;SDS011;5622;50.840;4.948;2022-08-21T02:25:14;5.10;;;2.67;;
11135;SDS011;5622;50.840;4.948;2022-08-21T02:27:43;5.10;;;2.77;;
11135;SDS011;5622;50.840;4.948;2022-08-21T02:30:15;6.87;;;3.00;;
11135;SDS011;5622;50.840;4.948;2022-08-21T02:32:44;6.93;;;2.90;;
11135;SDS011;5622;50.840;4.948;2022-08-21T02:35:11;7.20;;;2.60;;
11135;SDS011;5622;50.840;4.948;2022-08-21T02:37:42;4.90;;;2.87;;
11135;SDS011;5622;50.840;4.948;2022-08-21T02:40:11;6.77;;;2.73;;
11135;SDS011;5622;50.840;4.948;2022-08-21T02:42:38;3.20;;;2.40;;
11135;SDS011;5622;50.840;4.948;2022-08-21T02:45:06;5.77;;;3.40;;
11135;SDS011;5622;50.840;4.948;2022-08-21T02:47:35;4.60;;;3.10;;
11135;SDS011;5622;50.840;4.948;2022-08-21T02:50:03;4.77;;;2.87;;
11135;SDS011;5622;50.840;4.948;2022-08-21T02:52:32;4.73;;;2.47;;
11135;SDS011;5622;50.840;4.948;2022-08-21T02:55:00;5.67;;;2.80;;
11135;SDS011;5622;50.840;4.948;2022-08-21T02:57:27;4.40;;;2.70;;
11135;SDS011;5622;50.840;4.948;2022-08-21T02:59:57;5.83;;;3.00;;
11135;SDS011;5622;50.840;4.948;2022-08-21T03:02:25;6.43;;;2.93;;
11135;SDS011;5622;50.840;4.948;2022-08-21T03:04:53;6.63;;;2.77;;
11135;SDS011;5622;50.840;4.948;2022-08-21T03:07:20;8.17;;;2.53;;
11135;SDS011;5622;50.840;4.948;2022-08-21T03:09:48;8.07;;;2.80;;
11135;SDS011;5622;50.840;4.948;2022-08-21T03:12:15;5.00;;;2.57;;
11135;SDS011;5622;50.840;4.948;2022-08-21T03:14:42;6.97;;;2.93;;
11135;SDS011;5622;50.840;4.948;2022-08-21T03:17:09;7.33;;;2.77;;
11135;SDS011;5622;50.840;4.948;2022-08-21T03:19:36;6.77;;;2.90;;
11135;SDS011;5622;50.840;4.948;2022-08-21T03:22:05;4.47;;;2.57;;
11135;SDS011;5622;50.840;4.948;2022-08-21T03:24:32;5.43;;;2.30;;
11135;SDS011;5622;50.840;4.948;2022-08-21T03:26:59;4.60;;;2.60;;
11135;SDS011;5622;50.840;4.948;2022-08-21T03:29:26;6.00;;;2.97;;
11135;SDS011;5622;50.840;4.948;2022-08-21T03:31:53;5.93;;;2.87;;
11135;SDS011;5622;50.840;4.948;2022-08-21T03:34:20;5.47;;;2.67;;
11135;SDS011;5622;50.840;4.948;2022-08-21T03:36:47;10.23;;;3.10;;
11135;SDS011;5622;50.840;4.948;2022-08-21T03:39:16;6.10;;;2.67;;
11135;SDS011;5622;50.840;4.948;2022-08-21T03:41:43;4.50;;;2.30;;
11135;SDS011;5622;50.840;4.948;2022-08-21T03:44:12;3.80;;;2.40;;
11135;SDS011;5622;50.840;4.948;2022-08-21T03:46:39;4.87;;;2.50;;
11135;SDS011;5622;50.840;4.948;2022-08-21T03:49:06;5.03;;;2.30;;
11135;SDS011;5622;50.840;4.948;2022-08-21T03:51:33;3.37;;;2.40;;
11135;SDS011;5622;50.840;4.948;2022-08-21T03:54:00;4.47;;;2.90;;
11135;SDS011;5622;50.840;4.948;2022-08-21T03:56:29;5.23;;;2.57;;
11135;SDS011;5622;50.840;4.948;2022-08-21T03:58:57;4.03;;;2.30;;
11135;SDS011;5622;50.840;4.948;2022-08-21T04:01:24;3.97;;;2.30;;
11135;SDS011;5622;50.840;4.948;2022-08-21T04:03:51;7.33;;;3.03;;
11135;SDS011;5622;50.840;4.948;2022-08-21T04:06:18;5.83;;;2.97;;
11135;SDS011;5622;50.840;4.948;2022-08-21T04:08:45;5.03;;;2.60;;
11135;SDS011;5622;50.840;4.948;2022-08-21T04:11:12;6.67;;;2.83;;
11135;SDS011;5622;50.840;4.948;2022-08-21T04:13:41;5.57;;;2.70;;
11135;SDS011;5622;50.840;4.948;2022-08-21T04:16:08;6.40;;;2.70;;
11135;SDS011;5622;50.840;4.948;2022-08-21T04:18:35;4.90;;;2.90;;
11135;SDS011;5622;50.840;4.948;2022-08-21T04:21:02;4.70;;;2.77;;
11135;SDS011;5622;50.840;4.948;2022-08-21T04:23:30;6.63;;;3.17;;
11135;SDS011;5622;50.840;4.948;2022-08-21T04:25:57;6.13;;;3.20;;
11135;SDS011;5622;50.840;4.948;2022-08-21T04:28:25;7.33;;;3.57;;
11135;SDS011;5622;50.840;4.948;2022-08-21T04:30:54;4.10;;;3.10;;
11135;SDS011;5622;50.840;4.948;2022-08-21T04:33:22;5.47;;;2.83;;
11135;SDS011;5622;50.840;4.948;2022-08-21T04:35:49;6.43;;;3.07;;
11135;SDS011;5622;50.840;4.948;2022-08-21T04:38:16;4.43;;;3.00;;
11135;SDS011;5622;50.840;4.948;2022-08-21T04:40:44;10.63;;;4.27;;
11135;SDS011;5622;50.840;4.948;2022-08-21T04:43:12;4.20;;;2.90;;
11135;SDS011;5622;50.840;4.948;2022-08-21T04:45:39;4.63;;;2.70;;
11135;SDS011;5622;50.840;4.948;2022-08-21T04:48:10;4.53;;;3.17;;
11135;SDS011;5622;50.840;4.948;2022-08-21T04:50:39;7.70;;;2.90;;
11135;SDS011;5622;50.840;4.948;2022-08-21T04:53:10;7.90;;;2.97;;
11135;SDS011;5622;50.840;4.948;2022-08-21T04:55:40;6.17;;;2.80;;
11135;SDS011;5622;50.840;4.948;2022-08-21T04:58:09;6.13;;;2.90;;
11135;SDS011;5622;50.840;4.948;2022-08-21T05:00:39;6.13;;;3.27;;
11135;SDS011;5622;50.840;4.948;2022-08-21T05:03:08;5.33;;;2.83;;
11135;SDS011;5622;50.840;4.948;2022-08-21T05:05:37;4.43;;;3.00;;
11135;SDS011;5622;50.840;4.948;2022-08-21T05:08:04;6.30;;;2.90;;
11135;SDS011;5622;50.840;4.948;2022-08-21T05:10:34;6.37;;;2.83;;
11135;SDS011;5622;50.840;4.948;2022-08-21T05:13:01;5.03;;;2.90;;
11135;SDS011;5622;50.840;4.948;2022-08-21T05:15:30;5.77;;;2.97;;
11135;SDS011;5622;50.840;4.948;2022-08-21T05:17:57;4.23;;;2.87;;
11135;SDS011;5622;50.840;4.948;2022-08-21T05:20:26;4.90;;;2.80;;
11135;SDS011;5622;50.840;4.948;2022-08-21T05:22:53;5.57;;;2.73;;
11135;SDS011;5622;50.840;4.948;2022-08-21T05:25:20;10.07;;;3.40;;
11135;SDS011;5622;50.840;4.948;2022-08-21T05:27:47;3.97;;;2.87;;
11135;SDS011;5622;50.840;4.948;2022-08-21T05:30:14;5.13;;;2.80;;
11135;SDS011;5622;50.840;4.948;2022-08-21T05:32:41;6.33;;;3.00;;
11135;SDS011;5622;50.840;4.948;2022-08-21T05:35:08;5.80;;;2.77;;
11135;SDS011;5622;50.840;4.948;2022-08-21T05:37:37;6.43;;;3.10;;
11135;SDS011;5622;50.840;4.948;2022-08-21T05:40:05;6.70;;;3.60;;
11135;SDS011;5622;50.840;4.948;2022-08-21T05:42:34;5.77;;;3.10;;
11135;SDS011;5622;50.840;4.948;2022-08-21T05:45:01;7.63;;;3.20;;
11135;SDS011;5622;50.840;4.948;2022-08-21T05:47:28;8.37;;;3.50;;
11135;SDS011;5622;50.840;4.948;2022-08-21T05:49:55;8.47;;;3.87;;
11135;SDS011;5622;50.840;4.948;2022-08-21T05:52:22;10.80;;;4.37;;
11135;SDS011;5622;50.840;4.948;2022-08-21T05:54:51;7.47;;;3.67;;
11135;SDS011;5622;50.840;4.948;2022-08-21T05:57:19;6.27;;;3.47;;
11135;SDS011;5622;50.840;4.948;2022-08-21T05:59:46;8.50;;;4.23;;
11135;SDS011;5622;50.840;4.948;2022-08-21T06:02:13;8.63;;;3.50;;
11135;SDS011;5622;50.840;4.948;2022-08-21T06:04:40;7.63;;;3.53;;
11135;SDS011;5622;50.840;4.948;2022-08-21T06:07:07;8.90;;;4.23;;
11135;SDS011;5622;50.840;4.948;2022-08-21T06:09:34;9.40;;;3.67;;
11135;SDS011;5622;50.840;4.948;2022-08-21T06:12:05;8.00;;;3.47;;
11135;SDS011;5622;50.840;4.948;2022-08-21T06:14:33;5.70;;;3.87;;
11135;SDS011;5622;50.840;4.948;2022-08-21T06:17:01;7.47;;;3.37;;
11135;SDS011;5622;50.840;4.948;2022-08-21T06:19:29;7.87;;;4.40;;
11135;SDS011;5622;50.840;4.948;2022-08-21T06:21:56;9.27;;;3.87;;
11135;SDS011;5622;50.840;4.948;2022-08-21T06:24:24;7.17;;;3.53;;
11135;SDS011;5622;50.840;4.948;2022-08-21T06:26:51;8.93;;;4.27;;
11135;SDS011;5622;50.840;4.948;2022-08-21T06:29:21;6.50;;;3.50;;
11135;SDS011;5622;50.840;4.948;2022-08-21T06:31:49;8.77;;;4.00;;
11135;SDS011;5622;50.840;4.948;2022-08-21T06:34:16;6.83;;;3.73;;
11135;SDS011;5622;50.840;4.948;2022-08-21T06:36:44;9.77;;;4.17;;
11135;SDS011;5622;50.840;4.948;2022-08-21T06:39:11;8.43;;;3.63;;
11135;SDS011;5622;50.840;4.948;2022-08-21T06:41:39;6.53;;;3.77;;
11135;SDS011;5622;50.840;4.948;2022-08-21T06:44:06;8.40;;;3.87;;
11135;SDS011;5622;50.840;4.948;2022-08-21T06:46:35;6.93;;;3.63;;
11135;SDS011;5622;50.840;4.948;2022-08-21T06:49:02;8.60;;;3.93;;
11135;SDS011;5622;50.840;4.948;2022-08-21T06:51:29;8.90;;;3.63;;
11135;SDS011;5622;50.840;4.948;2022-08-21T06:53:56;7.30;;;3.77;;
11135;SDS011;5622;50.840;4.948;2022-08-21T06:56:23;5.13;;;3.47;;
11135;SDS011;5622;50.840;4.948;2022-08-21T06:58:50;9.37;;;3.60;;
11135;SDS011;5622;50.840;4.948;2022-08-21T07:01:18;7.93;;;3.80;;
11135;SDS011;5622;50.840;4.948;2022-08-21T07:03:48;6.73;;;3.80;;
11135;SDS011;5622;50.840;4.948;2022-08-21T07:06:15;7.83;;;3.27;;
11135;SDS011;5622;50.840;4.948;2022-08-21T07:08:42;7.20;;;3.70;;
11135;SDS011;5622;50.840;4.948;2022-08-21T07:11:11;8.43;;;3.83;;
11135;SDS011;5622;50.840;4.948;2022-08-21T07:13:40;5.73;;;3.10;;
11135;SDS011;5622;50.840;4.948;2022-08-21T07:16:07;5.40;;;3.13;;
11135;SDS011;5622;50.840;4.948;2022-08-21T07:18:35;7.27;;;3.30;;
11135;SDS011;5622;50.840;4.948;2022-08-21T07:21:05;8.70;;;3.33;;
11135;SDS011;5622;50.840;4.948;2022-08-21T07:23:33;5.90;;;3.17;;
11135;SDS011;5622;50.840;4.948;2022-08-21T07:26:03;7.47;;;3.00;;
11135;SDS011;5622;50.840;4.948;2022-08-21T07:28:30;9.97;;;3.80;;
11135;SDS011;5622;50.840;4.948;2022-08-21T07:30:58;7.27;;;3.30;;
11135;SDS011;5622;50.840;4.948;2022-08-21T07:33:27;8.10;;;3.13;;
11135;SDS011;5622;50.840;4.948;2022-08-21T07:35:56;7.73;;;2.87;;
11135;SDS011;5622;50.840;4.948;2022-08-21T07:38:25;7.93;;;3.00;;
11135;SDS011;5622;50.840;4.948;2022-08-21T07:40:53;5.33;;;2.80;;
11135;SDS011;5622;50.840;4.948;2022-08-21T07:43:23;5.63;;;2.70;;
11135;SDS011;5622;50.840;4.948;2022-08-21T07:45:51;6.00;;;2.43;;
11135;SDS011;5622;50.840;4.948;2022-08-21T07:48:18;9.07;;;2.60;;
11135;SDS011;5622;50.840;4.948;2022-08-21T07:50:46;7.83;;;2.90;;
11135;SDS011;5622;50.840;4.948;2022-08-21T07:53:14;9.03;;;2.23;;
11135;SDS011;5622;50.840;4.948;2022-08-21T07:55:43;5.87;;;2.07;;
11135;SDS011;5622;50.840;4.948;2022-08-21T07:58:10;4.37;;;1.83;;
11135;SDS011;5622;50.840;4.948;2022-08-21T08:00:37;7.70;;;2.67;;
11135;SDS011;5622;50.840;4.948;2022-08-21T08:03:05;7.20;;;1.87;;
11135;SDS011;5622;50.840;4.948;2022-08-21T08:05:33;6.70;;;2.27;;
11135;SDS011;5622;50.840;4.948;2022-08-21T08:08:02;4.30;;;1.83;;
11135;SDS011;5622;50.840;4.948;2022-08-21T08:10:29;5.87;;;2.00;;
11135;SDS011;5622;50.840;4.948;2022-08-21T08:12:58;4.43;;;1.50;;
11135;SDS011;5622;50.840;4.948;2022-08-21T08:15:26;5.87;;;2.00;;
11135;SDS011;5622;50.840;4.948;2022-08-21T08:17:54;7.77;;;2.10;;
11135;SDS011;5622;50.840;4.948;2022-08-21T08:20:22;4.40;;;2.10;;
11135;SDS011;5622;50.840;4.948;2022-08-21T08:22:51;5.17;;;2.10;;
11135;SDS011;5622;50.840;4.948;2022-08-21T08:25:19;4.63;;;1.80;;
11135;SDS011;5622;50.840;4.948;2022-08-21T08:27:47;3.83;;;1.70;;
11135;SDS011;5622;50.840;4.948;2022-08-21T08:30:17;6.90;;;2.03;;
11135;SDS011;5622;50.840;4.948;2022-08-21T08:32:45;8.50;;;2.03;;
11135;SDS011;5622;50.840;4.948;2022-08-21T08:35:13;3.90;;;1.90;;
11135;SDS011;5622;50.840;4.948;2022-08-21T08:37:40;3.30;;;1.90;;
11135;SDS011;5622;50.840;4.948;2022-08-21T08:40:11;3.60;;;1.67;;
11135;SDS011;5622;50.840;4.948;2022-08-21T08:42:41;3.40;;;1.67;;
11135;SDS011;5622;50.840;4.948;2022-08-21T08:45:09;7.13;;;2.03;;
11135;SDS011;5622;50.840;4.948;2022-08-21T08:47:40;6.13;;;1.90;;
11135;SDS011;5622;50.840;4.948;2022-08-21T08:50:12;4.60;;;1.83;;
11135;SDS011;5622;50.840;4.948;2022-08-21T08:52:45;5.20;;;1.90;;
11135;SDS011;5622;50.840;4.948;2022-08-21T08:55:17;2.90;;;1.70;;
11135;SDS011;5622;50.840;4.948;2022-08-21T08:57:47;5.67;;;1.80;;
11135;SDS011;5622;50.840;4.948;2022-08-21T09:00:19;4.90;;;1.70;;
11135;SDS011;5622;50.840;4.948;2022-08-21T09:02:49;5.33;;;1.83;;
11135;SDS011;5622;50.840;4.948;2022-08-21T09:05:21;5.27;;;1.90;;
11135;SDS011;5622;50.840;4.948;2022-08-21T09:07:54;6.90;;;2.30;;
11135;SDS011;5622;50.840;4.948;2022-08-21T09:10:48;5.57;;;2.17;;
11135;SDS011;5622;50.840;4.948;2022-08-21T09:13:25;6.10;;;2.20;;
11135;SDS011;5622;50.840;4.948;2022-08-21T09:16:05;7.33;;;2.10;;
11135;SDS011;5622;50.840;4.948;2022-08-21T09:18:44;4.40;;;1.70;;
11135;SDS011;5622;50.840;4.948;2022-08-21T09:21:25;6.67;;;1.73;;
11135;SDS011;5622;50.840;4.948;2022-08-21T09:24:01;7.47;;;1.90;;
11135;SDS011;5622;50.840;4.948;2022-08-21T09:26:41;5.67;;;2.30;;
11135;SDS011;5622;50.840;4.948;2022-08-21T09:29:21;5.07;;;2.17;;
11135;SDS011;5622;50.840;4.948;2022-08-21T09:31:53;6.00;;;2.43;;
11135;SDS011;5622;50.840;4.948;2022-08-21T09:34:26;4.60;;;1.80;;
11135;SDS011;5622;50.840;4.948;2022-08-21T09:36:54;7.47;;;1.93;;
11135;SDS011;5622;50.840;4.948;2022-08-21T09:39:23;5.43;;;1.70;;
11135;SDS011;5622;50.840;4.948;2022-08-21T09:41:56;5.70;;;2.20;;
11135;SDS011;5622;50.840;4.948;2022-08-21T09:44:25;6.20;;;2.00;;
11135;SDS011;5622;50.840;4.948;2022-08-21T09:46:53;4.97;;;1.90;;
11135;SDS011;5622;50.840;4.948;2022-08-21T09:49:29;5.90;;;1.90;;
11135;SDS011;5622;50.840;4.948;2022-08-21T09:51:57;3.93;;;1.53;;
11135;SDS011;5622;50.840;4.948;2022-08-21T09:54:26;4.00;;;1.60;;
11135;SDS011;5622;50.840;4.948;2022-08-21T09:56:58;3.90;;;1.70;;
11135;SDS011;5622;50.840;4.948;2022-08-21T09:59:55;4.87;;;2.07;;
11135;SDS011;5622;50.840;4.948;2022-08-21T10:02:35;4.40;;;2.00;;
11135;SDS011;5622;50.840;4.948;2022-08-21T10:05:08;3.47;;;1.80;;
11135;SDS011;5622;50.840;4.948;2022-08-21T10:07:43;5.97;;;2.03;;
11135;SDS011;5622;50.840;4.948;2022-08-21T10:10:13;5.80;;;1.90;;
11135;SDS011;5622;50.840;4.948;2022-08-21T10:12:45;3.67;;;1.70;;
11135;SDS011;5622;50.840;4.948;2022-08-21T10:15:19;5.23;;;1.90;;
11135;SDS011;5622;50.840;4.948;2022-08-21T10:17:52;9.63;;;2.33;;
11135;SDS011;5622;50.840;4.948;2022-08-21T10:20:28;7.67;;;2.07;;
11135;SDS011;5622;50.840;4.948;2022-08-21T10:23:06;7.23;;;2.23;;
11135;SDS011;5622;50.840;4.948;2022-08-21T10:25:43;5.03;;;2.33;;
11135;SDS011;5622;50.840;4.948;2022-08-21T10:28:16;7.57;;;2.03;;
11135;SDS011;5622;50.840;4.948;2022-08-21T10:30:52;5.63;;;2.17;;
11135;SDS011;5622;50.840;4.948;2022-08-21T10:33:28;5.47;;;2.00;;
11135;SDS011;5622;50.840;4.948;2022-08-21T10:36:06;6.30;;;1.73;;
11135;SDS011;5622;50.840;4.948;2022-08-21T10:38:56;3.90;;;1.77;;
11135;SDS011;5622;50.840;4.948;2022-08-21T10:41:37;4.13;;;1.80;;
11135;SDS011;5622;50.840;4.948;2022-08-21T10:44:17;5.80;;;1.63;;
11135;SDS011;5622;50.840;4.948;2022-08-21T10:46:54;5.63;;;1.90;;
11135;SDS011;5622;50.840;4.948;2022-08-21T10:49:29;5.43;;;2.17;;
11135;SDS011;5622;50.840;4.948;2022-08-21T10:55:00;7.67;;;2.10;;
11135;SDS011;5622;50.840;4.948;2022-08-21T11:00:55;9.37;;;2.60;;
11135;SDS011;5622;50.840;4.948;2022-08-21T11:03:28;4.70;;;1.83;;
11135;SDS011;5622;50.840;4.948;2022-08-21T11:06:02;8.80;;;2.40;;
11135;SDS011;5622;50.840;4.948;2022-08-21T11:08:38;3.83;;;1.90;;
11135;SDS011;5622;50.840;4.948;2022-08-21T11:11:08;6.07;;;2.17;;
11135;SDS011;5622;50.840;4.948;2022-08-21T11:13:39;6.27;;;2.40;;
11135;SDS011;5622;50.840;4.948;2022-08-21T11:16:10;7.43;;;2.20;;
11135;SDS011;5622;50.840;4.948;2022-08-21T11:18:45;4.73;;;2.00;;
11135;SDS011;5622;50.840;4.948;2022-08-21T11:21:23;5.83;;;2.07;;
11135;SDS011;5622;50.840;4.948;2022-08-21T11:23:59;6.57;;;2.10;;
11135;SDS011;5622;50.840;4.948;2022-08-21T11:26:30;5.80;;;2.17;;
11135;SDS011;5622;50.840;4.948;2022-08-21T11:29:04;9.13;;;2.57;;
11135;SDS011;5622;50.840;4.948;2022-08-21T11:31:42;8.00;;;2.23;;
11135;SDS011;5622;50.840;4.948;2022-08-21T11:34:26;7.27;;;2.17;;
11135;SDS011;5622;50.840;4.948;2022-08-21T11:37:07;6.37;;;2.17;;
11135;SDS011;5622;50.840;4.948;2022-08-21T11:39:45;6.87;;;2.17;;
11135;SDS011;5622;50.840;4.948;2022-08-21T11:42:23;5.50;;;2.30;;
11135;SDS011;5622;50.840;4.948;2022-08-21T11:44:56;8.90;;;2.67;;
11135;SDS011;5622;50.840;4.948;2022-08-21T11:47:44;7.27;;;2.50;;
11135;SDS011;5622;50.840;4.948;2022-08-21T11:50:21;5.23;;;2.30;;
11135;SDS011;5622;50.840;4.948;2022-08-21T11:52:53;4.43;;;1.60;;
11135;SDS011;5622;50.840;4.948;2022-08-21T11:55:28;7.67;;;2.53;;
11135;SDS011;5622;50.840;4.948;2022-08-21T11:58:02;5.00;;;1.97;;
11135;SDS011;5622;50.840;4.948;2022-08-21T12:00:34;5.97;;;2.17;;
11135;SDS011;5622;50.840;4.948;2022-08-21T12:03:07;6.70;;;2.20;;
11135;SDS011;5622;50.840;4.948;2022-08-21T12:05:40;4.33;;;2.00;;
11135;SDS011;5622;50.840;4.948;2022-08-21T12:08:10;7.60;;;2.47;;
11135;SDS011;5622;50.840;4.948;2022-08-21T12:10:41;9.00;;;2.80;;
11135;SDS011;5622;50.840;4.948;2022-08-21T12:13:22;6.67;;;2.17;;
11135;SDS011;5622;50.840;4.948;2022-08-21T12:15:51;7.53;;;2.13;;
11135;SDS011;5622;50.840;4.948;2022-08-21T12:18:20;7.37;;;2.63;;
11135;SDS011;5622;50.840;4.948;2022-08-21T12:20:58;3.27;;;1.77;;
11135;SDS011;5622;50.840;4.948;2022-08-21T12:23:29;8.13;;;2.40;;
11135;SDS011;5622;50.840;4.948;2022-08-21T12:26:03;8.97;;;2.20;;
11135;SDS011;5622;50.840;4.948;2022-08-21T12:28:43;5.60;;;2.40;;
11135;SDS011;5622;50.840;4.948;2022-08-21T12:31:17;4.97;;;2.20;;
11135;SDS011;5622;50.840;4.948;2022-08-21T12:33:49;5.07;;;2.17;;
11135;SDS011;5622;50.840;4.948;2022-08-21T12:36:20;3.07;;;1.80;;
11135;SDS011;5622;50.840;4.948;2022-08-21T12:38:51;2.20;;;1.73;;
11135;SDS011;5622;50.840;4.948;2022-08-21T12:41:24;7.00;;;2.47;;
11135;SDS011;5622;50.840;4.948;2022-08-21T12:43:56;4.73;;;2.50;;
11135;SDS011;5622;50.840;4.948;2022-08-21T12:46:29;5.80;;;1.97;;
11135;SDS011;5622;50.840;4.948;2022-08-21T12:49:01;4.93;;;2.03;;
11135;SDS011;5622;50.840;4.948;2022-08-21T12:51:45;7.57;;;2.53;;
11135;SDS011;5622;50.840;4.948;2022-08-21T12:54:21;7.13;;;2.23;;
11135;SDS011;5622;50.840;4.948;2022-08-21T12:56:59;7.77;;;2.47;;
11135;SDS011;5622;50.840;4.948;2022-08-21T12:59:28;8.97;;;2.83;;
11135;SDS011;5622;50.840;4.948;2022-08-21T13:01:56;8.50;;;3.10;;
11135;SDS011;5622;50.840;4.948;2022-08-21T13:04:27;5.63;;;2.30;;
11135;SDS011;5622;50.840;4.948;2022-08-21T13:07:00;4.93;;;2.00;;
11135;SDS011;5622;50.840;4.948;2022-08-21T13:09:28;5.03;;;2.53;;
11135;SDS011;5622;50.840;4.948;2022-08-21T13:11:58;7.13;;;2.27;;
11135;SDS011;5622;50.840;4.948;2022-08-21T13:14:28;7.10;;;2.40;;
11135;SDS011;5622;50.840;4.948;2022-08-21T13:16:57;6.50;;;2.10;;
11135;SDS011;5622;50.840;4.948;2022-08-21T13:19:26;3.23;;;1.90;;
11135;SDS011;5622;50.840;4.948;2022-08-21T13:21:55;6.73;;;2.40;;
11135;SDS011;5622;50.840;4.948;2022-08-21T13:24:23;4.93;;;2.10;;
11135;SDS011;5622;50.840;4.948;2022-08-21T13:30:02;13.87;;;3.37;;
11135;SDS011;5622;50.840;4.948;2022-08-21T13:32:33;6.50;;;2.17;;
11135;SDS011;5622;50.840;4.948;2022-08-21T13:35:07;8.17;;;2.33;;
11135;SDS011;5622;50.840;4.948;2022-08-21T13:37:37;3.80;;;1.70;;
11135;SDS011;5622;50.840;4.948;2022-08-21T13:40:07;4.40;;;1.90;;
11135;SDS011;5622;50.840;4.948;2022-08-21T13:42:39;6.67;;;2.00;;
11135;SDS011;5622;50.840;4.948;2022-08-21T13:45:11;7.67;;;2.10;;
11135;SDS011;5622;50.840;4.948;2022-08-21T13:47:40;5.37;;;1.63;;
11135;SDS011;5622;50.840;4.948;2022-08-21T13:50:08;4.40;;;2.00;;
11135;SDS011;5622;50.840;4.948;2022-08-21T13:52:46;5.63;;;1.87;;
11135;SDS011;5622;50.840;4.948;2022-08-21T13:55:16;6.43;;;2.20;;
11135;SDS011;5622;50.840;4.948;2022-08-21T13:57:45;5.57;;;2.10;;
11135;SDS011;5622;50.840;4.948;2022-08-21T14:00:13;4.57;;;2.00;;
11135;SDS011;5622;50.840;4.948;2022-08-21T14:02:43;6.57;;;2.10;;
11135;SDS011;5622;50.840;4.948;2022-08-21T14:05:14;5.93;;;2.20;;
11135;SDS011;5622;50.840;4.948;2022-08-21T14:07:45;5.13;;;1.93;;
11135;SDS011;5622;50.840;4.948;2022-08-21T14:10:17;6.03;;;2.27;;
11135;SDS011;5622;50.840;4.948;2022-08-21T14:12:48;5.10;;;2.00;;
11135;SDS011;5622;50.840;4.948;2022-08-21T14:15:23;5.73;;;1.90;;
11135;SDS011;5622;50.840;4.948;2022-08-21T14:17:53;3.60;;;1.43;;
11135;SDS011;5622;50.840;4.948;2022-08-21T14:20:28;6.47;;;2.17;;
11135;SDS011;5622;50.840;4.948;2022-08-21T14:22:57;6.60;;;2.10;;
11135;SDS011;5622;50.840;4.948;2022-08-21T14:25:29;4.03;;;1.80;;
11135;SDS011;5622;50.840;4.948;2022-08-21T14:28:08;3.93;;;1.80;;
11135;SDS011;5622;50.840;4.948;2022-08-21T14:30:42;4.40;;;1.90;;
11135;SDS011;5622;50.840;4.948;2022-08-21T14:33:11;5.37;;;2.03;;
11135;SDS011;5622;50.840;4.948;2022-08-21T14:35:40;5.27;;;1.50;;
11135;SDS011;5622;50.840;4.948;2022-08-21T14:38:14;4.77;;;1.90;;
11135;SDS011;5622;50.840;4.948;2022-08-21T14:40:42;4.43;;;1.77;;
11135;SDS011;5622;50.840;4.948;2022-08-21T14:43:13;3.27;;;2.27;;
11135;SDS011;5622;50.840;4.948;2022-08-21T14:45:40;4.30;;;2.00;;
11135;SDS011;5622;50.840;4.948;2022-08-21T14:48:09;6.17;;;2.00;;
11135;SDS011;5622;50.840;4.948;2022-08-21T14:50:36;4.37;;;2.03;;
11135;SDS011;5622;50.840;4.948;2022-08-21T14:53:04;5.47;;;1.80;;
11135;SDS011;5622;50.840;4.948;2022-08-21T14:55:31;4.80;;;1.70;;
11135;SDS011;5622;50.840;4.948;2022-08-21T14:58:21;8.00;;;2.10;;
11135;SDS011;5622;50.840;4.948;2022-08-21T15:00:49;4.83;;;1.83;;
11135;SDS011;5622;50.840;4.948;2022-08-21T15:03:17;6.07;;;2.13;;
11135;SDS011;5622;50.840;4.948;2022-08-21T15:05:46;4.03;;;1.90;;
11135;SDS011;5622;50.840;4.948;2022-08-21T15:08:15;5.03;;;1.90;;
11135;SDS011;5622;50.840;4.948;2022-08-21T15:10:42;5.73;;;2.33;;
11135;SDS011;5622;50.840;4.948;2022-08-21T15:13:10;6.60;;;1.87;;
11135;SDS011;5622;50.840;4.948;2022-08-21T15:15:40;6.17;;;2.40;;
11135;SDS011;5622;50.840;4.948;2022-08-21T15:18:08;6.63;;;2.50;;
11135;SDS011;5622;50.840;4.948;2022-08-21T15:20:36;7.93;;;2.60;;
11135;SDS011;5622;50.840;4.948;2022-08-21T15:23:04;7.73;;;2.17;;
11135;SDS011;5622;50.840;4.948;2022-08-21T15:25:33;4.60;;;2.20;;
11135;SDS011;5622;50.840;4.948;2022-08-21T15:28:00;6.20;;;2.00;;